Time;durP1;ratioP1;P1;durP2;ratioP2;P2;SDS_P1;SDS_P2;PMS_P1;PMS_P2;Temp;Humidity;BMP_temperature;BMP_pressure;BME280_temperature;BME280_humidity;BME280_pressure;Samples;Min_cycle;Max_cycle;Signal;HPM_P1;HPM_P2
2023/08/19 06:56:26;;;;;;;13.90;8.87;;;20.30;99.90;;;;;;6095152;22;1530734;-79
2023/08/19 06:59:08;;;;;;;15.20;10.75;;;20.30;99.90;;;;;;6100557;23;20144;-85
2023/08/19 07:01:40;;;;;;;11.73;9.63;;;20.30;99.90;;;;;;6127007;23;20148;-86
2023/08/19 07:04:09;;;;;;;11.70;9.15;;;20.40;99.90;;;;;;6127121;23;20151;-84
2023/08/19 07:06:37;;;;;;;13.20;8.98;;;20.40;99.90;;;;;;6126849;23;20166;-85
2023/08/19 07:09:07;;;;;;;12.85;9.27;;;20.40;99.90;;;;;;6127158;23;20164;-85
2023/08/19 07:11:35;;;;;;;10.77;8.98;;;20.40;99.90;;;;;;6126916;23;20230;-85
2023/08/19 07:14:03;;;;;;;12.27;8.77;;;20.40;99.90;;;;;;6126538;23;20159;-85
2023/08/19 07:16:35;;;;;;;14.52;9.13;;;20.40;99.90;;;;;;6123695;23;20174;-85
2023/08/19 07:19:08;;;;;;;11.35;8.35;;;20.40;99.90;;;;;;6122316;23;20151;-84
2023/08/19 07:21:37;;;;;;;11.13;9.27;;;20.40;99.90;;;;;;6122411;23;20206;-85
2023/08/19 07:24:05;;;;;;;10.35;8.73;;;20.40;99.90;;;;;;6120565;23;20168;-85
2023/08/19 07:26:34;;;;;;;12.60;9.60;;;20.40;99.90;;;;;;6122076;23;20195;-81
2023/08/19 07:29:02;;;;;;;16.02;10.18;;;20.40;99.90;;;;;;6122605;23;20167;-85
2023/08/19 07:31:30;;;;;;;13.30;9.15;;;20.40;99.90;;;;;;6121873;23;20668;-84
2023/08/19 07:33:59;;;;;;;12.52;9.25;;;20.50;99.90;;;;;;6121799;23;20171;-84
2023/08/19 07:36:27;;;;;;;14.88;9.77;;;20.50;99.90;;;;;;6095716;23;20163;-86
2023/08/19 07:38:54;;;;;;;13.85;9.57;;;20.60;99.90;;;;;;6122013;23;21074;-85
2023/08/19 07:41:22;;;;;;;16.33;9.65;;;20.60;99.90;;;;;;6095947;23;20175;-85
2023/08/19 07:43:49;;;;;;;11.27;9.60;;;20.60;99.90;;;;;;6122121;23;20174;-82
2023/08/19 07:46:17;;;;;;;10.93;8.95;;;20.60;99.90;;;;;;6121855;23;20174;-79
2023/08/19 07:48:46;;;;;;;12.90;9.65;;;20.60;99.90;;;;;;6120837;23;20231;-83
2023/08/19 07:51:13;;;;;;;13.95;9.18;;;20.60;99.90;;;;;;6120495;23;20194;-82
2023/08/19 07:53:41;;;;;;;12.15;8.95;;;20.50;99.90;;;;;;6120366;23;20183;-83
2023/08/19 07:56:08;;;;;;;13.10;9.30;;;20.60;99.90;;;;;;6122007;23;20203;-83
2023/08/19 07:58:36;;;;;;;10.48;9.07;;;20.60;99.90;;;;;;6121910;23;20499;-83
2023/08/19 08:01:05;;;;;;;12.65;10.20;;;20.60;99.90;;;;;;6122066;23;20167;-83
2023/08/19 08:03:32;;;;;;;15.38;10.23;;;20.50;99.90;;;;;;6122053;23;20243;-81
2023/08/19 08:06:00;;;;;;;12.35;9.40;;;20.50;99.90;;;;;;6122182;23;20555;-83
2023/08/19 08:08:27;;;;;;;17.75;9.45;;;20.50;99.90;;;;;;6095189;23;20163;-84
2023/08/19 08:10:55;;;;;;;12.00;9.77;;;20.50;99.90;;;;;;6121623;23;20183;-84
2023/08/19 08:13:23;;;;;;;14.55;9.63;;;20.50;99.90;;;;;;6121777;23;20610;-84
2023/08/19 08:15:50;;;;;;;14.77;9.82;;;20.50;99.90;;;;;;6121888;23;20168;-85
2023/08/19 08:18:18;;;;;;;11.50;9.50;;;20.50;99.90;;;;;;6121576;23;20161;-82
2023/08/19 08:20:45;;;;;;;13.32;9.48;;;20.50;99.90;;;;;;6121424;23;20167;-85
2023/08/19 08:23:13;;;;;;;12.13;9.00;;;20.50;99.90;;;;;;6121595;23;20641;-83
2023/08/19 08:25:40;;;;;;;12.35;8.35;;;20.50;99.90;;;;;;6121965;23;20174;-85
2023/08/19 08:28:08;;;;;;;10.27;8.55;;;20.50;99.90;;;;;;6121922;23;20226;-83
2023/08/19 08:30:35;;;;;;;9.25;7.80;;;20.60;99.90;;;;;;6122306;23;20167;-85
2023/08/19 08:33:03;;;;;;;11.20;7.05;;;20.60;99.90;;;;;;6119717;23;20167;-84
2023/08/19 08:35:32;;;;;;;10.23;7.53;;;20.60;99.90;;;;;;6120980;23;20159;-86
2023/08/19 08:38:00;;;;;;;9.70;7.82;;;20.60;99.90;;;;;;6119781;23;20179;-85
2023/08/19 08:40:32;;;;;;;12.48;7.68;;;20.60;99.90;;;;;;6120484;23;20164;-86
2023/08/19 08:43:02;;;;;;;10.43;8.13;;;20.60;99.90;;;;;;6120555;23;20148;-86
2023/08/19 08:45:31;;;;;;;8.23;7.10;;;20.60;99.90;;;;;;6096146;23;20203;-86
2023/08/19 08:48:00;;;;;;;9.20;7.45;;;20.60;99.90;;;;;;6095933;23;20163;-82
2023/08/19 08:50:28;;;;;;;9.73;7.35;;;20.60;99.90;;;;;;6121266;23;20170;-87
2023/08/19 08:52:57;;;;;;;9.98;7.55;;;20.60;99.90;;;;;;6123077;23;20272;-87
2023/08/19 08:55:25;;;;;;;12.20;7.72;;;20.60;99.90;;;;;;6096436;23;20197;-85
2023/08/19 08:57:52;;;;;;;11.68;8.43;;;20.60;99.90;;;;;;6121888;23;20191;-86
2023/08/19 09:00:20;;;;;;;10.75;7.63;;;20.70;99.90;;;;;;6121925;23;20194;-87
2023/08/19 09:02:50;;;;;;;11.32;7.90;;;20.70;99.90;;;;;;6092741;23;20575;-86
2023/08/19 09:05:22;;;;;;;10.65;7.95;;;20.70;99.90;;;;;;6120408;23;20187;-87
2023/08/19 09:07:53;;;;;;;10.23;7.95;;;20.70;99.90;;;;;;6095487;23;20171;-86
2023/08/19 09:10:24;;;;;;;10.73;8.48;;;20.70;99.90;;;;;;6122672;23;20163;-86
2023/08/19 09:12:58;;;;;;;13.07;9.23;;;20.80;99.90;;;;;;6095314;23;20557;-86
2023/08/19 09:15:28;;;;;;;15.15;8.63;;;20.80;99.90;;;;;;6121365;23;20162;-85
2023/08/19 09:17:57;;;;;;;9.10;8.10;;;20.90;99.90;;;;;;6120765;23;20163;-86
2023/08/19 09:20:25;;;;;;;11.45;8.50;;;20.90;99.90;;;;;;6093411;23;20171;-84
2023/08/19 09:23:04;;;;;;;10.27;7.93;;;20.90;99.90;;;;;;6120444;23;20173;-84
2023/08/19 09:25:37;;;;;;;10.88;7.53;;;21.00;99.90;;;;;;6120516;23;20632;-84
2023/08/19 09:28:06;;;;;;;10.68;8.57;;;21.00;99.90;;;;;;6070847;23;20167;-83
2023/08/19 09:30:34;;;;;;;9.05;7.82;;;21.00;99.90;;;;;;6120615;23;20167;-83
2023/08/19 09:33:03;;;;;;;10.75;8.95;;;21.10;99.90;;;;;;6094955;23;20163;-84
2023/08/19 09:35:38;;;;;;;9.82;8.18;;;21.20;99.90;;;;;;6120145;23;20238;-83
2023/08/19 09:38:25;;;;;;;12.27;8.68;;;21.20;99.90;;;;;;6119873;23;20144;-82
2023/08/19 09:40:58;;;;;;;12.02;9.50;;;21.40;99.90;;;;;;6094361;23;20167;-84
2023/08/19 09:43:26;;;;;;;11.35;8.68;;;21.60;99.90;;;;;;6095627;23;20203;-85
2023/08/19 09:45:58;;;;;;;10.57;9.45;;;21.90;99.90;;;;;;6121975;23;20190;-83
2023/08/19 09:48:26;;;;;;;11.93;9.23;;;22.10;99.90;;;;;;6120868;23;20181;-85
2023/08/19 09:50:54;;;;;;;12.18;9.40;;;22.30;99.90;;;;;;6120903;23;20638;-85
2023/08/19 09:53:22;;;;;;;12.50;9.52;;;22.40;99.90;;;;;;6122121;23;20164;-87
2023/08/19 09:55:50;;;;;;;13.13;9.50;;;22.50;99.90;;;;;;6096171;23;20259;-83
2023/08/19 09:58:18;;;;;;;13.02;9.18;;;22.50;99.90;;;;;;6122446;23;20152;-87
2023/08/19 10:00:46;;;;;;;11.27;8.60;;;22.40;99.90;;;;;;6122411;23;20502;-85
2023/08/19 10:03:18;;;;;;;11.27;8.80;;;22.50;99.90;;;;;;6121830;23;20238;-87
2023/08/19 10:05:52;;;;;;;10.43;9.23;;;22.70;99.90;;;;;;6096449;23;20164;-86
2023/08/19 10:08:25;;;;;;;12.55;9.02;;;23.00;99.90;;;;;;6096363;23;20158;-87
2023/08/19 10:10:53;;;;;;;11.05;8.52;;;23.10;99.90;;;;;;6072270;23;20218;-85
2023/08/19 10:13:23;;;;;;;10.90;8.88;;;23.00;99.90;;;;;;6122599;23;20159;-87
2023/08/19 10:15:54;;;;;;;13.85;9.05;;;23.20;99.90;;;;;;6096566;23;20163;-83
2023/08/19 10:18:25;;;;;;;12.35;9.32;;;23.10;99.90;;;;;;6122244;23;20148;-86
2023/08/19 10:20:59;;;;;;;9.48;8.48;;;23.20;99.90;;;;;;6096757;23;20483;-85
2023/08/19 10:23:27;;;;;;;13.93;8.88;;;23.30;99.90;;;;;;6072371;23;20164;-83
2023/08/19 10:25:55;;;;;;;12.98;9.50;;;23.40;99.90;;;;;;6122316;23;20219;-84
2023/08/19 10:28:27;;;;;;;13.23;9.30;;;23.60;99.90;;;;;;6096067;23;20682;-85
2023/08/19 10:31:15;;;;;;;10.20;8.93;;;23.70;99.90;;;;;;6121746;23;20230;-85
2023/08/19 10:33:47;;;;;;;12.05;9.52;;;23.90;99.90;;;;;;6096205;23;20152;-84
2023/08/19 10:36:17;;;;;;;13.93;8.93;;;23.80;99.90;;;;;;6122216;23;20148;-86
2023/08/19 10:38:56;;;;;;;11.60;9.63;;;23.70;99.90;;;;;;6122535;23;20159;-85
2023/08/19 10:41:26;;;;;;;11.23;9.90;;;23.90;99.90;;;;;;6072669;23;20167;-86
2023/08/19 10:43:57;;;;;;;13.25;10.18;;;24.20;99.90;;;;;;6123636;23;20168;-87
2023/08/19 10:46:34;;;;;;;11.70;9.60;;;24.40;99.90;;;;;;6122842;23;20151;-87
2023/08/19 10:49:07;;;;;;;13.00;9.93;;;24.40;99.90;;;;;;6094498;23;20163;-87
2023/08/19 10:52:05;;;;;;;12.40;10.18;;;24.50;99.90;;;;;;6122587;23;20626;-86
2023/08/19 10:54:40;;;;;;;13.80;10.25;;;24.60;99.90;;;;;;6122428;23;20147;-86
2023/08/19 10:57:14;;;;;;;13.70;9.93;;;24.60;99.90;;;;;;6096421;23;20195;-84
2023/08/19 10:59:47;;;;;;;10.52;9.43;;;24.40;99.90;;;;;;6122425;23;20147;-88
2023/08/19 11:02:15;;;;;;;13.75;11.27;;;24.50;99.90;;;;;;6096524;23;20152;-84
2023/08/19 11:04:46;;;;;;;10.07;9.07;;;24.90;99.90;;;;;;6096932;23;20499;-86
2023/08/19 11:07:14;;;;;;;10.23;9.07;;;25.00;99.90;;;;;;6096489;23;20175;-85
2023/08/19 11:09:43;;;;;;;10.07;8.88;;;25.00;99.90;;;;;;6096552;23;20163;-86
2023/08/19 11:12:15;;;;;;;11.90;10.27;;;25.10;99.90;;;;;;6122437;23;20226;-83
2023/08/19 11:14:50;;;;;;;11.93;9.32;;;25.20;99.90;;;;;;6122510;23;20159;-83
2023/08/19 11:17:25;;;;;;;11.48;9.75;;;25.40;99.90;;;;;;6122663;23;20147;-86
2023/08/19 11:19:53;;;;;;;11.27;9.30;;;25.40;99.90;;;;;;6096910;23;20147;-85
2023/08/19 11:22:21;;;;;;;12.68;9.45;;;25.50;99.90;;;;;;6122475;23;20198;-85
2023/08/19 11:24:50;;;;;;;10.77;9.68;;;25.70;99.90;;;;;;6122351;23;20683;-84
2023/08/19 11:27:20;;;;;;;11.35;9.15;;;25.80;99.90;;;;;;6097062;23;20151;-88
2023/08/19 11:29:48;;;;;;;11.48;9.48;;;25.90;99.90;;;;;;6121989;23;20167;-86
2023/08/19 11:32:20;;;;;;;10.05;8.82;;;25.80;99.90;;;;;;6122018;23;20190;-87
2023/08/19 11:34:48;;;;;;;10.98;9.25;;;25.80;99.90;;;;;;6096532;23;20163;-86
2023/08/19 11:37:16;;;;;;;22.17;15.85;;;25.90;99.90;;;;;;6122134;23;20163;-83
2023/08/19 11:39:45;;;;;;;11.05;8.75;;;25.90;99.90;;;;;;6121984;23;20159;-87
2023/08/19 11:42:13;;;;;;;13.77;9.32;;;26.00;99.90;;;;;;6096601;23;20171;-87
2023/08/19 11:44:44;;;;;;;11.65;8.48;;;26.20;99.90;;;;;;6072289;23;20199;-86
2023/08/19 11:47:13;;;;;;;11.77;8.27;;;26.30;99.90;;;;;;6095586;23;20175;-85
2023/08/19 11:49:44;;;;;;;12.02;9.10;;;26.30;99.90;;;;;;6122149;23;20737;-85
2023/08/19 11:52:19;;;;;;;9.60;8.70;;;26.70;99.90;;;;;;6121826;23;20172;-83
2023/08/19 11:55:01;;;;;;;14.00;10.73;;;26.60;99.90;;;;;;6095794;23;20159;-84
2023/08/19 11:57:37;;;;;;;12.15;8.95;;;26.60;99.90;;;;;;6121440;23;20187;-84
2023/08/19 12:00:13;;;;;;;9.82;8.82;;;26.50;99.90;;;;;;6122056;23;20734;-84
2023/08/19 12:02:41;;;;;;;9.82;8.15;;;26.60;99.90;;;;;;6096503;23;20251;-84
2023/08/19 12:05:08;;;;;;;11.45;8.77;;;26.50;99.90;;;;;;6122504;23;20198;-86
2023/08/19 12:07:36;;;;;;;11.90;8.77;;;26.40;99.90;;;;;;6122421;23;20172;-86
2023/08/19 12:10:04;;;;;;;10.63;8.73;;;26.70;99.90;;;;;;6122054;23;20164;-84
2023/08/19 12:12:31;;;;;;;10.00;8.77;;;26.80;99.90;;;;;;6121882;23;20255;-84
2023/08/19 12:15:00;;;;;;;13.18;9.82;;;26.80;99.90;;;;;;6121412;23;20175;-85
2023/08/19 12:17:28;;;;;;;14.80;9.27;;;27.00;99.90;;;;;;6122050;23;20227;-84
2023/08/19 12:20:07;;;;;;;11.43;9.18;;;27.00;99.90;;;;;;6121798;23;20159;-84
2023/08/19 12:22:35;;;;;;;12.35;9.57;;;27.00;99.90;;;;;;6118319;23;20175;-83
2023/08/19 12:25:08;;;;;;;11.07;9.98;;;27.20;99.90;;;;;;6118528;23;20175;-85
2023/08/19 12:27:37;;;;;;;11.35;9.45;;;27.40;99.90;;;;;;6122136;23;20242;-86
2023/08/19 12:30:05;;;;;;;11.20;9.98;;;27.40;99.90;;;;;;6122359;23;20197;-86
2023/08/19 12:32:33;;;;;;;10.95;9.15;;;27.40;99.90;;;;;;6122030;23;20360;-82
2023/08/19 12:35:01;;;;;;;11.27;10.07;;;27.30;99.90;;;;;;6096343;23;20160;-84
2023/08/19 12:37:29;;;;;;;11.02;9.77;;;27.60;99.90;;;;;;6122019;23;20164;-84
2023/08/19 12:39:56;;;;;;;13.45;10.30;;;27.60;99.90;;;;;;6121681;23;20183;-84
2023/08/19 12:42:24;;;;;;;11.77;9.68;;;27.60;99.90;;;;;;6095535;23;20552;-85
2023/08/19 12:45:11;;;;;;;15.73;10.25;;;27.70;99.90;;;;;;6094105;23;20698;-84
2023/08/19 12:47:40;;;;;;;10.27;9.25;;;27.60;99.90;;;;;;6120086;23;20230;-86
2023/08/19 12:50:09;;;;;;;12.77;9.60;;;27.80;99.90;;;;;;6121756;23;20167;-83
2023/08/19 12:52:36;;;;;;;9.88;8.88;;;27.40;99.90;;;;;;6096038;23;20271;-84
2023/08/19 12:55:04;;;;;;;10.93;8.60;;;27.30;99.90;;;;;;6121538;23;20633;-85
2023/08/19 12:57:32;;;;;;;10.45;9.45;;;27.20;99.90;;;;;;6121285;23;20219;-87
2023/08/19 13:00:00;;;;;;;12.63;9.80;;;27.50;99.90;;;;;;6095680;23;20242;-85
2023/08/19 13:02:27;;;;;;;12.50;9.52;;;27.80;99.90;;;;;;6121596;23;20171;-85
2023/08/19 13:04:57;;;;;;;10.80;9.80;;;27.40;99.90;;;;;;6094665;23;20172;-84
2023/08/19 13:07:25;;;;;;;12.13;9.75;;;27.70;99.90;;;;;;6121638;23;20610;-83
2023/08/19 13:09:52;;;;;;;10.43;9.35;;;27.50;99.90;;;;;;6121701;23;20167;-85
2023/08/19 13:12:20;;;;;;;11.82;10.10;;;27.50;99.90;;;;;;6095655;23;20191;-86
2023/08/19 13:14:47;;;;;;;13.30;9.68;;;27.80;99.90;;;;;;6121742;23;20247;-86
2023/08/19 13:17:15;;;;;;;10.30;9.30;;;27.90;99.90;;;;;;6121640;23;20234;-86
2023/08/19 13:19:42;;;;;;;11.82;10.02;;;28.10;99.90;;;;;;6095271;23;20222;-85
2023/08/19 13:22:10;;;;;;;10.20;8.98;;;28.00;99.90;;;;;;6095024;23;20190;-85
2023/08/19 13:24:38;;;;;;;11.68;10.18;;;27.90;99.90;;;;;;6121499;23;20246;-84
2023/08/19 13:27:05;;;;;;;10.35;9.18;;;28.00;99.90;;;;;;6095272;23;20505;-85
2023/08/19 13:29:33;;;;;;;12.90;9.25;;;28.20;99.90;;;;;;6121589;23;20163;-85
2023/08/19 13:32:00;;;;;;;14.23;9.98;;;27.70;99.90;;;;;;6121370;23;20187;-84
2023/08/19 13:34:28;;;;;;;10.63;9.52;;;27.50;99.90;;;;;;6121339;23;20160;-84
2023/08/19 13:36:55;;;;;;;10.43;9.32;;;27.90;99.90;;;;;;6121765;23;20242;-84
2023/08/19 13:39:25;;;;;;;11.95;10.43;;;27.80;99.90;;;;;;6121455;23;20639;-82
2023/08/19 13:41:52;;;;;;;13.57;9.25;;;27.60;99.90;;;;;;6122159;23;20215;-84
2023/08/19 13:44:24;;;;;;;12.35;8.75;;;27.10;99.90;;;;;;6121138;23;20190;-84
2023/08/19 13:46:52;;;;;;;12.93;9.45;;;26.80;99.90;;;;;;6094761;23;20165;-85
2023/08/19 13:49:20;;;;;;;10.25;8.68;;;26.60;99.90;;;;;;6070845;23;20187;-83
2023/08/19 13:51:49;;;;;;;10.13;8.68;;;26.50;99.90;;;;;;6120547;23;20218;-85
2023/08/19 13:54:17;;;;;;;11.75;9.52;;;26.40;99.90;;;;;;6095310;23;20162;-85
2023/08/19 13:56:47;;;;;;;11.90;9.10;;;26.30;99.90;;;;;;6093512;23;20199;-83
2023/08/19 13:59:15;;;;;;;10.27;8.77;;;26.20;99.90;;;;;;6070623;23;20171;-85
2023/08/19 14:01:43;;;;;;;9.75;8.75;;;26.20;99.90;;;;;;6121367;23;20163;-84
2023/08/19 14:04:11;;;;;;;11.82;9.73;;;26.10;99.90;;;;;;6095232;23;20167;-84
2023/08/19 14:06:38;;;;;;;13.70;8.30;;;26.10;99.90;;;;;;6120903;23;20769;-86
2023/08/19 14:09:06;;;;;;;13.30;9.68;;;26.10;99.90;;;;;;6095099;23;20178;-85
2023/08/19 14:11:33;;;;;;;12.13;8.93;;;26.00;99.90;;;;;;6121273;23;20266;-85
2023/08/19 14:14:01;;;;;;;11.85;8.88;;;25.90;99.90;;;;;;6095272;23;20185;-84
2023/08/19 14:16:29;;;;;;;9.23;8.27;;;26.00;99.90;;;;;;6120922;23;20159;-84
2023/08/19 14:18:56;;;;;;;10.38;8.23;;;25.90;99.90;;;;;;6121012;23;20155;-85
2023/08/19 14:21:24;;;;;;;12.68;9.45;;;26.00;99.90;;;;;;6095072;23;20607;-83
2023/08/19 14:23:52;;;;;;;12.70;9.13;;;26.00;99.90;;;;;;6121186;23;20167;-81
2023/08/19 14:26:19;;;;;;;10.50;9.40;;;25.90;99.90;;;;;;6121769;23;20164;-84
2023/08/19 14:28:47;;;;;;;11.45;8.85;;;25.90;99.90;;;;;;6095667;23;20177;-84
2023/08/19 14:31:14;;;;;;;9.73;8.77;;;25.90;99.90;;;;;;6120730;23;20187;-84
2023/08/19 14:33:43;;;;;;;9.55;8.63;;;26.00;99.90;;;;;;6120000;23;20257;-85
2023/08/19 14:36:11;;;;;;;12.73;8.70;;;25.90;99.90;;;;;;6120693;23;20160;-83
2023/08/19 14:38:38;;;;;;;14.57;9.32;;;25.90;99.90;;;;;;6121971;23;20697;-83
2023/08/19 14:41:06;;;;;;;11.20;9.32;;;25.80;99.90;;;;;;6098226;23;20202;-85
2023/08/19 14:43:33;;;;;;;12.07;9.98;;;25.80;99.90;;;;;;6096377;23;20175;-84
2023/08/19 14:46:08;;;;;;;11.00;9.23;;;25.70;99.90;;;;;;6122334;23;20163;-84
2023/08/19 14:48:36;;;;;;;13.93;10.43;;;25.70;99.90;;;;;;6122806;23;20151;-84
2023/08/19 14:51:03;;;;;;;15.07;9.55;;;25.70;99.90;;;;;;6122486;23;20199;-84
2023/08/19 14:53:31;;;;;;;14.25;8.50;;;25.80;99.90;;;;;;6121758;23;20190;-83
2023/08/19 14:55:59;;;;;;;11.43;9.93;;;25.80;99.90;;;;;;6096416;23;20228;-83
2023/08/19 14:58:27;;;;;;;10.43;9.30;;;25.80;99.90;;;;;;6096942;23;20156;-86
2023/08/19 15:00:55;;;;;;;12.52;9.45;;;25.90;99.90;;;;;;6122116;23;20607;-83
2023/08/19 15:03:22;;;;;;;10.77;9.00;;;25.90;99.90;;;;;;6096420;23;20179;-85
2023/08/19 15:05:50;;;;;;;11.18;10.02;;;25.90;99.90;;;;;;6122635;23;20167;-85
2023/08/19 15:08:17;;;;;;;11.63;9.38;;;25.90;99.90;;;;;;6096884;23;20167;-85
2023/08/19 15:10:45;;;;;;;10.82;9.27;;;25.90;99.90;;;;;;6096744;23;20166;-82
2023/08/19 15:13:13;;;;;;;11.82;9.70;;;26.10;99.90;;;;;;6071817;23;20222;-84
2023/08/19 15:15:40;;;;;;;14.10;9.95;;;26.40;99.90;;;;;;6071671;23;20628;-84
2023/08/19 15:18:09;;;;;;;11.70;9.40;;;26.40;99.90;;;;;;6095911;23;20198;-84
2023/08/19 15:20:36;;;;;;;12.02;9.30;;;26.40;99.90;;;;;;6095380;23;20929;-84
2023/08/19 15:23:04;;;;;;;10.07;8.90;;;26.40;99.90;;;;;;6121780;23;20611;-83
2023/08/19 15:25:32;;;;;;;11.05;9.75;;;26.50;99.90;;;;;;6122000;23;20170;-84
2023/08/19 15:27:59;;;;;;;14.00;9.45;;;26.40;99.90;;;;;;6122241;23;20167;-83
2023/08/19 15:30:27;;;;;;;15.13;9.70;;;26.30;99.90;;;;;;6096302;23;20167;-85
2023/08/19 15:32:55;;;;;;;15.57;9.77;;;26.30;99.90;;;;;;6121769;23;20205;-82
2023/08/19 15:35:22;;;;;;;10.35;8.70;;;26.50;99.90;;;;;;6095728;23;20171;-84
2023/08/19 15:37:51;;;;;;;13.10;9.77;;;26.30;99.90;;;;;;6096104;23;20163;-85
2023/08/19 15:40:19;;;;;;;12.50;9.63;;;26.20;99.90;;;;;;6072073;23;20670;-83
2023/08/19 15:42:47;;;;;;;11.95;8.95;;;26.20;99.90;;;;;;6095939;23;20546;-83
2023/08/19 15:45:14;;;;;;;10.57;8.00;;;26.00;99.90;;;;;;6095919;23;20171;-82
2023/08/19 15:47:42;;;;;;;13.40;8.10;;;25.90;99.90;;;;;;6121989;23;20614;-82
2023/08/19 15:50:10;;;;;;;9.50;7.78;;;25.80;99.90;;;;;;6121936;23;20539;-81
2023/08/19 15:52:37;;;;;;;11.95;7.70;;;25.70;99.90;;;;;;6121909;23;20618;-83
2023/08/19 15:55:06;;;;;;;9.18;7.63;;;25.60;99.90;;;;;;6121920;23;20171;-84
2023/08/19 15:57:33;;;;;;;11.65;7.70;;;25.60;99.90;;;;;;6120425;23;20187;-83
2023/08/19 16:00:01;;;;;;;9.48;7.70;;;25.60;99.90;;;;;;6121240;23;20166;-84
2023/08/19 16:02:31;;;;;;;9.88;7.47;;;25.50;99.90;;;;;;6121590;23;20168;-83
2023/08/19 16:04:59;;;;;;;9.70;7.40;;;25.40;99.90;;;;;;6121806;23;20170;-82
2023/08/19 16:07:35;;;;;;;12.55;6.68;;;25.30;99.90;;;;;;6121527;23;20615;-85
2023/08/19 16:10:04;;;;;;;10.40;7.63;;;25.30;99.90;;;;;;6122282;23;20234;-85
2023/08/19 16:12:32;;;;;;;7.70;6.60;;;25.20;99.90;;;;;;6121795;23;20894;-85
2023/08/19 16:14:59;;;;;;;9.82;6.22;;;25.20;99.90;;;;;;6121807;23;20168;-85
2023/08/19 16:17:27;;;;;;;8.23;6.22;;;25.10;99.90;;;;;;6095254;23;20179;-83
2023/08/19 16:19:55;;;;;;;10.73;7.00;;;24.90;99.90;;;;;;6095391;23;20174;-83
2023/08/19 16:22:23;;;;;;;8.20;6.80;;;24.90;99.90;;;;;;6120998;23;20182;-85
2023/08/19 16:24:50;;;;;;;11.25;7.00;;;24.90;99.90;;;;;;6120283;23;20194;-84
2023/08/19 16:27:18;;;;;;;11.07;7.03;;;24.90;99.90;;;;;;6095281;23;20163;-86
2023/08/19 16:29:46;;;;;;;10.75;6.80;;;24.80;99.90;;;;;;6120923;23;20223;-83
2023/08/19 16:32:13;;;;;;;9.82;6.80;;;24.70;99.90;;;;;;6093451;23;20166;-86
2023/08/19 16:34:41;;;;;;;11.15;7.85;;;24.70;99.90;;;;;;6120995;23;20193;-83
2023/08/19 16:37:09;;;;;;;9.25;7.15;;;24.70;99.90;;;;;;6125311;23;20242;-84
2023/08/19 16:39:36;;;;;;;9.20;7.43;;;24.70;99.90;;;;;;6105511;23;20178;-83
2023/08/19 16:42:04;;;;;;;10.73;7.18;;;24.70;99.90;;;;;;6126137;23;20169;-86
2023/08/19 16:44:31;;;;;;;11.90;8.00;;;24.60;99.90;;;;;;6125076;23;20174;-86
2023/08/19 16:47:00;;;;;;;12.65;8.00;;;24.50;99.90;;;;;;6125922;23;20172;-86
2023/08/19 16:49:29;;;;;;;14.05;7.88;;;24.40;99.90;;;;;;6124309;23;20147;-86
2023/08/19 16:51:57;;;;;;;11.90;7.63;;;24.30;99.90;;;;;;6126006;23;20167;-86
2023/08/19 16:54:24;;;;;;;11.85;7.60;;;24.40;99.90;;;;;;6125883;23;20190;-81
2023/08/19 16:56:52;;;;;;;14.70;8.07;;;24.40;99.90;;;;;;6127343;23;20258;-81
2023/08/19 16:59:20;;;;;;;13.82;8.15;;;24.40;99.90;;;;;;6128452;23;20175;-84
2023/08/19 17:01:47;;;;;;;13.57;7.40;;;24.40;99.90;;;;;;6127100;23;20214;-86
2023/08/19 17:04:15;;;;;;;10.85;7.90;;;24.40;99.90;;;;;;6124932;23;20262;-80
2023/08/19 17:06:46;;;;;;;9.73;7.32;;;24.30;99.90;;;;;;6094357;23;20163;-83
2023/08/19 17:09:13;;;;;;;9.50;7.20;;;24.20;99.90;;;;;;6119899;23;20166;-84
2023/08/19 17:11:44;;;;;;;11.30;7.22;;;24.10;99.90;;;;;;6120771;23;20163;-85
2023/08/19 17:14:11;;;;;;;10.60;6.93;;;24.10;99.90;;;;;;6094877;23;20176;-87
2023/08/19 17:16:39;;;;;;;10.52;7.03;;;24.10;99.90;;;;;;6094972;23;20164;-86
2023/08/19 17:19:07;;;;;;;12.13;7.50;;;24.10;99.90;;;;;;6095129;23;20159;-85
2023/08/19 17:21:35;;;;;;;10.70;7.10;;;23.90;99.90;;;;;;6120906;23;20187;-86
2023/08/19 17:24:03;;;;;;;8.85;6.75;;;23.80;99.90;;;;;;6095942;23;20673;-85
2023/08/19 17:26:30;;;;;;;10.27;5.97;;;23.80;99.90;;;;;;6095794;23;20175;-85
2023/08/19 17:28:58;;;;;;;10.57;5.97;;;23.80;99.90;;;;;;6095330;23;20202;-85
2023/08/19 17:31:25;;;;;;;8.52;6.05;;;23.70;99.90;;;;;;6095094;23;20163;-86
2023/08/19 17:33:53;;;;;;;6.35;5.70;;;23.70;99.90;;;;;;6094872;23;20650;-83
2023/08/19 17:36:21;;;;;;;12.90;6.75;;;23.50;99.90;;;;;;6095390;23;20168;-83
2023/08/19 17:38:48;;;;;;;8.52;6.03;;;23.50;99.90;;;;;;6094922;23;20250;-87
2023/08/19 17:41:16;;;;;;;12.73;6.75;;;23.60;99.90;;;;;;6094968;23;20497;-86
2023/08/19 17:43:45;;;;;;;12.18;5.95;;;23.70;99.90;;;;;;6094914;23;20167;-87
2023/08/19 17:46:15;;;;;;;7.47;6.35;;;23.70;99.90;;;;;;6121359;23;20156;-84
2023/08/19 17:48:44;;;;;;;13.25;6.82;;;23.60;99.90;;;;;;6121211;23;20163;-85
2023/08/19 17:51:11;;;;;;;13.50;6.35;;;23.50;99.90;;;;;;6094783;23;20202;-84
2023/08/19 17:53:39;;;;;;;8.02;5.60;;;23.50;99.90;;;;;;6119548;23;20630;-85
2023/08/19 17:56:10;;;;;;;8.38;5.68;;;23.50;99.90;;;;;;6094744;23;20278;-85
2023/08/19 17:58:40;;;;;;;11.13;6.22;;;23.40;99.90;;;;;;6096002;23;20179;-85
2023/08/19 18:01:08;;;;;;;11.40;6.05;;;23.50;99.90;;;;;;6094834;23;20218;-84
2023/08/19 18:03:36;;;;;;;13.30;6.20;;;23.50;99.90;;;;;;6121205;23;20206;-87
2023/08/19 18:06:05;;;;;;;10.85;6.18;;;23.60;99.90;;;;;;6121178;23;20163;-85
2023/08/19 18:08:32;;;;;;;14.35;6.13;;;23.50;99.90;;;;;;6095444;23;20167;-86
2023/08/19 18:11:00;;;;;;;12.27;5.95;;;23.50;99.90;;;;;;6121377;23;20170;-85
2023/08/19 18:13:29;;;;;;;16.30;7.25;;;23.50;99.90;;;;;;6122075;23;20234;-85
2023/08/19 18:15:57;;;;;;;15.63;6.30;;;23.50;99.90;;;;;;6123541;23;20606;-85
2023/08/19 18:18:24;;;;;;;10.73;6.18;;;23.40;99.90;;;;;;6096892;23;20263;-86
2023/08/19 18:20:55;;;;;;;8.35;6.43;;;23.30;99.90;;;;;;6097176;23;20633;-87
2023/08/19 18:23:24;;;;;;;14.85;7.43;;;23.30;99.90;;;;;;6123169;23;20158;-81
2023/08/19 18:25:53;;;;;;;11.75;6.53;;;23.30;99.90;;;;;;6073781;23;20185;-85
2023/08/19 18:28:21;;;;;;;13.85;5.90;;;23.30;99.90;;;;;;6096398;23;20613;-83
2023/08/19 18:30:54;;;;;;;12.38;5.60;;;23.30;99.90;;;;;;6096406;23;20175;-84
2023/08/19 18:33:24;;;;;;;9.88;6.13;;;23.30;99.90;;;;;;6122103;23;20206;-85
2023/08/19 18:36:06;;;;;;;13.70;6.57;;;23.20;99.90;;;;;;6096150;23;20164;-84
2023/08/19 18:38:34;;;;;;;10.95;6.63;;;23.10;99.90;;;;;;6096436;23;20234;-85
2023/08/19 18:41:02;;;;;;;13.88;7.63;;;23.20;99.90;;;;;;6097192;23;20163;-85
2023/08/19 18:43:30;;;;;;;10.65;6.53;;;23.10;99.90;;;;;;6122537;23;20164;-86
2023/08/19 18:45:59;;;;;;;13.15;6.22;;;23.20;99.90;;;;;;6122421;23;20242;-85
2023/08/19 18:48:28;;;;;;;11.48;6.53;;;23.20;99.90;;;;;;6122627;23;20175;-86
2023/08/19 18:50:56;;;;;;;16.65;6.90;;;23.20;99.90;;;;;;6097198;23;20170;-87
2023/08/19 18:53:25;;;;;;;12.38;6.53;;;23.10;99.90;;;;;;6123108;23;20190;-88
2023/08/19 18:55:53;;;;;;;14.07;6.40;;;23.00;99.90;;;;;;6096786;23;20163;-88
2023/08/19 18:58:25;;;;;;;11.73;6.30;;;23.00;99.90;;;;;;6120637;23;20144;-88
2023/08/19 19:00:53;;;;;;;11.95;6.75;;;23.10;99.90;;;;;;6121828;23;20152;-87
2023/08/19 19:03:21;;;;;;;11.50;6.10;;;23.10;99.90;;;;;;6072667;23;20178;-87
2023/08/19 19:05:49;;;;;;;16.08;7.07;;;22.90;99.90;;;;;;6096215;23;20210;-86
2023/08/19 19:08:17;;;;;;;14.52;6.63;;;22.90;99.90;;;;;;6122192;23;20183;-87
2023/08/19 19:10:44;;;;;;;11.45;6.00;;;22.90;99.90;;;;;;6095470;23;20661;-85
2023/08/19 19:13:13;;;;;;;13.43;7.22;;;22.90;99.90;;;;;;6120825;23;20163;-85
2023/08/19 19:15:42;;;;;;;14.52;6.38;;;22.90;99.90;;;;;;6096904;23;20625;-86
2023/08/19 19:18:11;;;;;;;10.98;5.93;;;22.90;99.90;;;;;;6096681;23;20234;-84
2023/08/19 19:20:42;;;;;;;15.10;5.45;;;22.90;99.90;;;;;;6122632;23;20168;-85
2023/08/19 19:23:10;;;;;;;11.57;5.85;;;22.90;99.90;;;;;;6122876;23;20143;-85
2023/08/19 19:25:37;;;;;;;11.50;6.78;;;22.90;99.90;;;;;;6122311;23;20238;-85
2023/08/19 19:28:05;;;;;;;16.13;6.90;;;22.80;99.90;;;;;;6122007;23;20620;-86
2023/08/19 19:30:32;;;;;;;16.70;7.20;;;22.80;99.90;;;;;;6072643;23;20218;-85
2023/08/19 19:33:00;;;;;;;11.07;6.20;;;22.80;99.90;;;;;;6122338;23;20190;-86
2023/08/19 19:35:28;;;;;;;11.05;6.10;;;22.70;99.90;;;;;;6096044;23;20658;-84
2023/08/19 19:37:56;;;;;;;10.18;6.18;;;22.60;99.90;;;;;;6122418;23;20658;-86
2023/08/19 19:40:23;;;;;;;10.02;6.20;;;22.70;99.90;;;;;;6122603;23;20166;-87
2023/08/19 19:42:51;;;;;;;12.90;6.13;;;22.70;99.90;;;;;;6072562;23;20172;-85